Banos de Copahue, Argentina
Current Conditions -  °F | °C
As of 5:00 AM on Thursday 23 Oct 2014 (Local Time) from SCQP Reporting Station
Haze Haze  
Wind Chill:   Ceiling: Unl
Heat Index:   Visibility: 6mi
Dew Point:   Wind: 2mph
Humidity: 100%   Direction: NA
Pressure: 30"   Gusts: NA
Location:  37.8°S, 71.12°W
Report Text: SCQP 230800Z VRB02KT 9000 2100S BR SCT004 06/06 Q1016
Loading
Personal Weather Stations






























Interactive Weather Map
Tropical Storm Tracking
New forecast layout! Learn more

10-Day Weather Forecast

Advertisements
Track Severe Weather on mobile